TimePST,TemperatureF,Dew PointF,Humidity,Sea Level PressureIn,VisibilityMPH,Wind Direction,Wind SpeedMPH,Gust SpeedMPH,PrecipitationIn,Events,Conditions,WindDirDegrees,DateUTC
12:15 AM,23.0,14.0,68,29.95,10.0,NNW,8.1,-,N/A,,Partly Cloudy,340,2013-02-09 08:15:00
12:30 AM,23.0,14.0,68,29.95,10.0,NNW,12.7,-,N/A,,Partly Cloudy,340,2013-02-09 08:30:00
12:55 AM,23.0,15.8,74,29.95,10.0,North,12.7,-,N/A,,Overcast,350,2013-02-09 08:55:00
1:10 AM,23.0,15.8,74,29.95,10.0,North,11.5,-,N/A,,Mostly Cloudy,350,2013-02-09 09:10:00
1:30 AM,24.8,14.0,64,29.95,10.0,North,4.6,-,N/A,,Overcast,10,2013-02-09 09:30:00
1:55 AM,24.8,15.8,69,29.95,10.0,NNW,5.8,-,N/A,,Overcast,330,2013-02-09 09:55:00
2:10 AM,24.8,15.8,69,29.95,10.0,NNW,8.1,-,N/A,,Overcast,330,2013-02-09 10:10:00
2:25 AM,24.8,15.8,69,29.96,10.0,North,6.9,-,N/A,,Overcast,360,2013-02-09 10:25:00
2:50 AM,24.8,15.8,69,29.95,10.0,WSW,3.5,-,N/A,,Overcast,250,2013-02-09 10:50:00
3:15 AM,24.8,14.0,64,29.95,10.0,NW,6.9,-,N/A,,Overcast,320,2013-02-09 11:15:00
3:30 AM,23.0,14.0,68,29.95,10.0,NW,8.1,-,N/A,,Mostly Cloudy,310,2013-02-09 11:30:00
3:50 AM,23.0,14.0,68,29.95,10.0,WNW,5.8,-,N/A,,Mostly Cloudy,290,2013-02-09 11:50:00
4:10 AM,21.2,14.0,74,29.95,10.0,WNW,8.1,-,N/A,,Mostly Cloudy,300,2013-02-09 12:10:00
4:30 AM,19.4,14.0,80,29.95,10.0,NNW,10.4,-,N/A,,Mostly Cloudy,340,2013-02-09 12:30:00
4:50 AM,19.4,14.0,80,29.95,10.0,NNW,9.2,-,N/A,,Partly Cloudy,340,2013-02-09 12:50:00
5:10 AM,17.6,14.0,86,29.95,10.0,NNW,9.2,-,N/A,,Clear,330,2013-02-09 13:10:00
5:30 AM,17.6,12.2,79,29.95,10.0,NNW,6.9,-,N/A,,Clear,340,2013-02-09 13:30:00
5:55 AM,17.6,14.0,86,29.95,10.0,NNW,8.1,-,N/A,,Clear,330,2013-02-09 13:55:00
6:15 AM,17.6,14.0,86,29.96,10.0,North,10.4,-,N/A,,Clear,360,2013-02-09 14:15:00
6:30 AM,19.4,14.0,80,29.96,10.0,North,8.1,-,N/A,,Clear,360,2013-02-09 14:30:00
6:50 AM,19.4,14.0,80,29.97,10.0,North,10.4,-,N/A,,Clear,10,2013-02-09 14:50:00
7:15 AM,19.4,14.0,80,29.98,10.0,NW,8.1,-,N/A,,Clear,320,2013-02-09 15:15:00
7:30 AM,19.4,14.0,80,29.98,10.0,NNW,6.9,-,N/A,,Clear,340,2013-02-09 15:30:00
7:50 AM,23.0,15.8,74,29.99,10.0,NW,3.5,-,N/A,,Partly Cloudy,320,2013-02-09 15:50:00
8:10 AM,23.0,14.0,68,29.99,10.0,Calm,Calm,-,N/A,,Partly Cloudy,0,2013-02-09 16:10:00
8:30 AM,24.8,15.8,69,29.99,10.0,NW,3.5,-,N/A,,Clear,320,2013-02-09 16:30:00
8:50 AM,26.6,15.8,64,29.99,10.0,Calm,Calm,-,N/A,,Clear,0,2013-02-09 16:50:00
9:15 AM,26.6,14.0,59,30.00,10.0,WNW,5.8,-,N/A,,Clear,300,2013-02-09 17:15:00
9:30 AM,28.4,14.0,55,30.01,10.0,North,10.4,16.1,N/A,,Clear,360,2013-02-09 17:30:00
9:55 AM,28.4,12.2,51,30.01,10.0,NNW,12.7,18.4,N/A,,Clear,340,2013-02-09 17:55:00
10:10 AM,28.4,12.2,51,30.02,10.0,NNW,12.7,-,N/A,,Clear,340,2013-02-09 18:10:00
10:30 AM,30.2,12.2,47,30.02,10.0,North,11.5,17.3,N/A,,Clear,360,2013-02-09 18:30:00
10:50 AM,30.2,14.0,51,30.02,10.0,NNW,12.7,16.1,N/A,,Clear,340,2013-02-09 18:50:00
11:15 AM,32.0,12.2,44,30.02,10.0,North,11.5,17.3,N/A,,Clear,360,2013-02-09 19:15:00
11:30 AM,32.0,14.0,48,30.02,10.0,NNW,12.7,18.4,N/A,,Clear,340,2013-02-09 19:30:00
11:55 AM,32.0,14.0,48,30.02,10.0,NNW,10.4,20.7,N/A,,Clear,330,2013-02-09 19:55:00
12:10 PM,32.0,14.0,48,30.02,10.0,North,8.1,16.1,N/A,,Clear,10,2013-02-09 20:10:00
12:30 PM,32.0,14.0,48,30.01,10.0,NNW,15.0,20.7,N/A,,Partly Cloudy,340,2013-02-09 20:30:00
12:50 PM,32.0,14.0,48,30.01,10.0,North,15.0,20.7,N/A,,Clear,10,2013-02-09 20:50:00
1:10 PM,32.0,12.2,44,30.01,10.0,NNE,12.7,17.3,N/A,,Clear,20,2013-02-09 21:10:00
1:30 PM,33.8,14.0,44,30.01,10.0,North,10.4,17.3,N/A,,Clear,350,2013-02-09 21:30:00
1:50 PM,33.8,14.0,44,30.01,10.0,North,10.4,17.3,N/A,,Clear,10,2013-02-09 21:50:00
2:10 PM,33.8,14.0,44,30.01,10.0,North,11.5,20.7,N/A,,Clear,360,2013-02-09 22:10:00
2:55 PM,35.6,14.0,41,30.01,10.0,NNW,11.5,-,N/A,,Clear,330,2013-02-09 22:55:00
3:15 PM,35.6,15.8,44,30.02,10.0,NNW,13.8,-,N/A,,Partly Cloudy,330,2013-02-09 23:15:00
3:30 PM,35.6,15.8,44,30.02,10.0,NNW,10.4,19.6,N/A,,Scattered Clouds,330,2013-02-09 23:30:00
3:50 PM,35.6,15.8,44,30.03,10.0,NNW,11.5,18.4,N/A,,Scattered Clouds,330,2013-02-09 23:50:00
4:15 PM,33.8,15.8,48,30.02,10.0,NW,3.5,-,N/A,,Scattered Clouds,320,2013-02-10 00:15:00
4:35 PM,33.8,15.8,48,30.02,10.0,NNW,5.8,-,N/A,,Partly Cloudy,330,2013-02-10 00:35:00
4:55 PM,33.8,15.8,48,30.02,10.0,NW,5.8,-,N/A,,Clear,320,2013-02-10 00:55:00
5:15 PM,32.0,15.8,51,30.01,10.0,NW,5.8,-,N/A,,Clear,320,2013-02-10 01:15:00
5:35 PM,30.2,15.8,55,30.01,10.0,NW,6.9,-,N/A,,Clear,310,2013-02-10 01:35:00
5:50 PM,28.4,17.6,64,30.02,10.0,North,9.2,-,N/A,,Clear,350,2013-02-10 01:50:00
6:10 PM,28.4,17.6,64,30.03,10.0,NNW,8.1,-,N/A,,Clear,330,2013-02-10 02:10:00
6:35 PM,28.4,17.6,64,30.03,10.0,NNW,5.8,-,N/A,,Clear,330,2013-02-10 02:35:00
6:50 PM,28.4,17.6,64,30.04,10.0,NNW,9.2,-,N/A,,Clear,340,2013-02-10 02:50:00
7:15 PM,26.6,17.6,69,30.05,10.0,North,8.1,-,N/A,,Clear,360,2013-02-10 03:15:00
7:30 PM,26.6,17.6,69,30.06,10.0,North,5.8,-,N/A,,Clear,360,2013-02-10 03:30:00
7:55 PM,24.8,17.6,74,30.06,10.0,WNW,3.5,-,N/A,,Clear,300,2013-02-10 03:55:00
8:15 PM,24.8,17.6,74,30.06,10.0,NW,6.9,-,N/A,,Clear,320,2013-02-10 04:15:00
8:30 PM,26.6,17.6,69,30.06,10.0,NW,8.1,-,N/A,,Clear,320,2013-02-10 04:30:00
8:50 PM,24.8,17.6,74,30.06,10.0,NNW,6.9,-,N/A,,Scattered Clouds,330,2013-02-10 04:50:00
9:10 PM,26.6,17.6,69,30.07,10.0,NW,6.9,-,N/A,,Overcast,310,2013-02-10 05:10:00
9:30 PM,26.6,17.6,69,30.06,10.0,NNW,5.8,-,N/A,,Mostly Cloudy,330,2013-02-10 05:30:00
9:55 PM,24.8,17.6,74,30.06,10.0,NNW,5.8,-,N/A,,Clear,330,2013-02-10 05:55:00
10:10 PM,24.8,17.6,74,30.07,10.0,North,6.9,-,N/A,,Clear,350,2013-02-10 06:10:00
10:30 PM,24.8,17.6,74,30.07,10.0,NW,5.8,-,N/A,,Clear,320,2013-02-10 06:30:00
10:50 PM,23.0,15.8,74,30.07,10.0,NNW,8.1,-,N/A,,Clear,330,2013-02-10 06:50:00
11:10 PM,24.8,15.8,69,30.08,10.0,North,9.2,-,N/A,,Clear,350,2013-02-10 07:10:00
11:35 PM,24.8,15.8,69,30.07,10.0,WNW,6.9,-,N/A,,Clear,300,2013-02-10 07:35:00
11:50 PM,24.8,15.8,69,30.07,10.0,NW,4.6,-,N/A,,Clear,310,2013-02-10 07:50:00